sensor_id;sensor_type;location;lat;lon;timestamp;P1;durP1;ratioP1;P2;durP2;ratioP2
55710;SDS011;41612;51.994;5.880;2023-12-07T00:00:28;13.20;;;8.45;;
55710;SDS011;41612;51.994;5.880;2023-12-07T00:02:53;12.23;;;8.05;;
55710;SDS011;41612;51.994;5.880;2023-12-07T00:05:19;14.07;;;8.93;;
55710;SDS011;41612;51.994;5.880;2023-12-07T00:07:45;13.43;;;8.98;;
55710;SDS011;41612;51.994;5.880;2023-12-07T00:10:10;13.77;;;8.05;;
55710;SDS011;41612;51.994;5.880;2023-12-07T00:12:36;14.13;;;8.70;;
55710;SDS011;41612;51.994;5.880;2023-12-07T00:15:05;12.15;;;8.43;;
55710;SDS011;41612;51.994;5.880;2023-12-07T00:17:31;12.70;;;7.97;;
55710;SDS011;41612;51.994;5.880;2023-12-07T00:19:58;13.70;;;8.60;;
55710;SDS011;41612;51.994;5.880;2023-12-07T00:22:24;14.70;;;8.55;;
55710;SDS011;41612;51.994;5.880;2023-12-07T00:24:51;14.00;;;9.00;;
55710;SDS011;41612;51.994;5.880;2023-12-07T00:27:18;15.20;;;9.40;;
55710;SDS011;41612;51.994;5.880;2023-12-07T00:29:44;17.17;;;10.43;;
55710;SDS011;41612;51.994;5.880;2023-12-07T00:32:09;13.50;;;8.98;;
55710;SDS011;41612;51.994;5.880;2023-12-07T00:34:35;17.88;;;10.25;;
55710;SDS011;41612;51.994;5.880;2023-12-07T00:37:01;15.68;;;9.18;;
55710;SDS011;41612;51.994;5.880;2023-12-07T00:39:28;16.67;;;9.77;;
55710;SDS011;41612;51.994;5.880;2023-12-07T00:41:53;20.20;;;10.75;;
55710;SDS011;41612;51.994;5.880;2023-12-07T00:44:19;12.10;;;7.97;;
55710;SDS011;41612;51.994;5.880;2023-12-07T00:46:44;13.38;;;8.20;;
55710;SDS011;41612;51.994;5.880;2023-12-07T00:49:10;19.58;;;11.45;;
55710;SDS011;41612;51.994;5.880;2023-12-07T00:51:36;14.60;;;9.43;;
55710;SDS011;41612;51.994;5.880;2023-12-07T00:54:02;13.48;;;8.60;;
55710;SDS011;41612;51.994;5.880;2023-12-07T00:56:28;12.02;;;7.95;;
55710;SDS011;41612;51.994;5.880;2023-12-07T00:58:54;12.05;;;7.65;;
55710;SDS011;41612;51.994;5.880;2023-12-07T01:01:19;14.35;;;9.00;;
55710;SDS011;41612;51.994;5.880;2023-12-07T01:03:45;14.65;;;9.88;;
55710;SDS011;41612;51.994;5.880;2023-12-07T01:06:11;16.88;;;10.93;;
55710;SDS011;41612;51.994;5.880;2023-12-07T01:08:36;14.88;;;8.93;;
55710;SDS011;41612;51.994;5.880;2023-12-07T01:11:03;17.05;;;10.55;;
55710;SDS011;41612;51.994;5.880;2023-12-07T01:13:29;18.92;;;10.95;;
55710;SDS011;41612;51.994;5.880;2023-12-07T01:15:55;19.02;;;9.70;;
55710;SDS011;41612;51.994;5.880;2023-12-07T01:18:21;18.10;;;10.88;;
55710;SDS011;41612;51.994;5.880;2023-12-07T01:20:47;14.35;;;9.27;;
55710;SDS011;41612;51.994;5.880;2023-12-07T01:23:13;17.67;;;9.68;;
55710;SDS011;41612;51.994;5.880;2023-12-07T01:25:39;12.68;;;8.32;;
55710;SDS011;41612;51.994;5.880;2023-12-07T01:28:05;23.17;;;11.10;;
55710;SDS011;41612;51.994;5.880;2023-12-07T01:30:33;16.42;;;9.82;;
55710;SDS011;41612;51.994;5.880;2023-12-07T01:33:00;10.93;;;7.70;;
55710;SDS011;41612;51.994;5.880;2023-12-07T01:35:26;13.07;;;8.70;;
55710;SDS011;41612;51.994;5.880;2023-12-07T01:37:52;14.70;;;8.70;;
55710;SDS011;41612;51.994;5.880;2023-12-07T01:40:18;13.40;;;8.13;;
55710;SDS011;41612;51.994;5.880;2023-12-07T01:42:50;15.10;;;9.35;;
55710;SDS011;41612;51.994;5.880;2023-12-07T01:45:19;20.23;;;11.07;;
55710;SDS011;41612;51.994;5.880;2023-12-07T01:47:45;18.20;;;10.85;;
55710;SDS011;41612;51.994;5.880;2023-12-07T01:50:18;19.10;;;10.90;;
55710;SDS011;41612;51.994;5.880;2023-12-07T01:52:49;19.50;;;12.32;;
55710;SDS011;41612;51.994;5.880;2023-12-07T01:55:27;15.82;;;10.15;;
55710;SDS011;41612;51.994;5.880;2023-12-07T01:57:55;21.45;;;12.77;;
55710;SDS011;41612;51.994;5.880;2023-12-07T02:00:21;24.83;;;13.15;;
55710;SDS011;41612;51.994;5.880;2023-12-07T02:02:46;27.35;;;15.18;;
55710;SDS011;41612;51.994;5.880;2023-12-07T02:05:13;18.58;;;11.93;;
55710;SDS011;41612;51.994;5.880;2023-12-07T02:07:42;18.58;;;11.15;;
55710;SDS011;41612;51.994;5.880;2023-12-07T02:10:10;13.05;;;8.25;;
55710;SDS011;41612;51.994;5.880;2023-12-07T02:12:36;13.95;;;9.23;;
55710;SDS011;41612;51.994;5.880;2023-12-07T02:15:02;14.80;;;8.55;;
55710;SDS011;41612;51.994;5.880;2023-12-07T02:17:33;15.20;;;7.85;;
55710;SDS011;41612;51.994;5.880;2023-12-07T02:20:21;12.07;;;7.50;;
55710;SDS011;41612;51.994;5.880;2023-12-07T02:22:54;22.48;;;14.18;;
55710;SDS011;41612;51.994;5.880;2023-12-07T02:25:32;20.67;;;12.23;;
55710;SDS011;41612;51.994;5.880;2023-12-07T02:28:02;22.23;;;14.07;;
55710;SDS011;41612;51.994;5.880;2023-12-07T02:30:28;28.48;;;14.65;;
55710;SDS011;41612;51.994;5.880;2023-12-07T02:32:55;67.32;;;15.60;;
55710;SDS011;41612;51.994;5.880;2023-12-07T02:35:21;62.80;;;15.38;;
55710;SDS011;41612;51.994;5.880;2023-12-07T02:37:50;29.95;;;15.30;;
55710;SDS011;41612;51.994;5.880;2023-12-07T02:40:18;30.10;;;14.75;;
55710;SDS011;41612;51.994;5.880;2023-12-07T02:42:47;19.10;;;13.43;;
55710;SDS011;41612;51.994;5.880;2023-12-07T02:45:14;52.55;;;14.77;;
55710;SDS011;41612;51.994;5.880;2023-12-07T02:47:40;31.00;;;12.85;;
55710;SDS011;41612;51.994;5.880;2023-12-07T02:50:08;74.75;;;17.00;;
55710;SDS011;41612;51.994;5.880;2023-12-07T02:52:35;17.00;;;11.23;;
55710;SDS011;41612;51.994;5.880;2023-12-07T02:55:00;66.75;;;16.52;;
55710;SDS011;41612;51.994;5.880;2023-12-07T02:57:27;18.23;;;12.38;;
55710;SDS011;41612;51.994;5.880;2023-12-07T02:59:54;69.63;;;17.35;;
55710;SDS011;41612;51.994;5.880;2023-12-07T03:02:20;20.67;;;13.88;;
55710;SDS011;41612;51.994;5.880;2023-12-07T03:04:46;25.67;;;14.48;;
55710;SDS011;41612;51.994;5.880;2023-12-07T03:07:11;70.15;;;17.58;;
55710;SDS011;41612;51.994;5.880;2023-12-07T03:09:38;24.05;;;15.32;;
55710;SDS011;41612;51.994;5.880;2023-12-07T03:12:04;26.88;;;15.48;;
55710;SDS011;41612;51.994;5.880;2023-12-07T03:14:30;44.33;;;18.08;;
55710;SDS011;41612;51.994;5.880;2023-12-07T03:16:56;36.63;;;20.10;;
55710;SDS011;41612;51.994;5.880;2023-12-07T03:19:21;37.28;;;20.63;;
55710;SDS011;41612;51.994;5.880;2023-12-07T03:21:47;37.70;;;22.85;;
55710;SDS011;41612;51.994;5.880;2023-12-07T03:24:12;37.08;;;21.02;;
55710;SDS011;41612;51.994;5.880;2023-12-07T03:26:38;36.53;;;23.30;;
55710;SDS011;41612;51.994;5.880;2023-12-07T03:29:04;32.17;;;20.73;;
55710;SDS011;41612;51.994;5.880;2023-12-07T03:31:29;37.28;;;22.88;;
55710;SDS011;41612;51.994;5.880;2023-12-07T03:33:55;40.28;;;23.80;;
55710;SDS011;41612;51.994;5.880;2023-12-07T03:36:21;30.10;;;18.83;;
55710;SDS011;41612;51.994;5.880;2023-12-07T03:38:48;41.47;;;24.20;;
55710;SDS011;41612;51.994;5.880;2023-12-07T03:41:14;23.92;;;16.50;;
55710;SDS011;41612;51.994;5.880;2023-12-07T03:43:39;38.00;;;22.10;;
55710;SDS011;41612;51.994;5.880;2023-12-07T03:46:05;24.23;;;16.98;;
55710;SDS011;41612;51.994;5.880;2023-12-07T03:48:32;36.17;;;21.95;;
55710;SDS011;41612;51.994;5.880;2023-12-07T03:50:58;35.30;;;23.33;;
55710;SDS011;41612;51.994;5.880;2023-12-07T03:53:24;33.75;;;22.83;;
55710;SDS011;41612;51.994;5.880;2023-12-07T03:55:49;40.25;;;23.83;;
55710;SDS011;41612;51.994;5.880;2023-12-07T03:58:16;38.17;;;25.55;;
55710;SDS011;41612;51.994;5.880;2023-12-07T04:00:41;38.67;;;24.17;;
55710;SDS011;41612;51.994;5.880;2023-12-07T04:03:07;38.92;;;23.20;;
55710;SDS011;41612;51.994;5.880;2023-12-07T04:05:33;37.50;;;23.00;;
55710;SDS011;41612;51.994;5.880;2023-12-07T04:07:59;36.28;;;23.60;;
55710;SDS011;41612;51.994;5.880;2023-12-07T04:10:24;35.83;;;23.70;;
55710;SDS011;41612;51.994;5.880;2023-12-07T04:12:50;40.38;;;25.60;;
55710;SDS011;41612;51.994;5.880;2023-12-07T04:15:18;40.17;;;25.08;;
55710;SDS011;41612;51.994;5.880;2023-12-07T04:17:46;32.47;;;22.40;;
55710;SDS011;41612;51.994;5.880;2023-12-07T04:20:13;41.50;;;24.10;;
55710;SDS011;41612;51.994;5.880;2023-12-07T04:22:39;42.03;;;23.85;;
55710;SDS011;41612;51.994;5.880;2023-12-07T04:25:05;37.42;;;23.90;;
55710;SDS011;41612;51.994;5.880;2023-12-07T04:27:32;37.28;;;23.10;;
55710;SDS011;41612;51.994;5.880;2023-12-07T04:29:58;44.85;;;24.13;;
55710;SDS011;41612;51.994;5.880;2023-12-07T04:32:24;36.97;;;20.73;;
55710;SDS011;41612;51.994;5.880;2023-12-07T04:34:52;34.97;;;21.13;;
55710;SDS011;41612;51.994;5.880;2023-12-07T04:37:18;35.55;;;20.15;;
55710;SDS011;41612;51.994;5.880;2023-12-07T04:39:44;35.90;;;23.25;;
55710;SDS011;41612;51.994;5.880;2023-12-07T04:42:09;87.75;;;22.77;;
55710;SDS011;41612;51.994;5.880;2023-12-07T04:44:35;69.85;;;22.25;;
55710;SDS011;41612;51.994;5.880;2023-12-07T04:47:01;29.85;;;18.75;;
55710;SDS011;41612;51.994;5.880;2023-12-07T04:49:26;99.13;;;22.90;;
55710;SDS011;41612;51.994;5.880;2023-12-07T04:51:52;105.03;;;21.80;;
55710;SDS011;41612;51.994;5.880;2023-12-07T04:54:18;144.65;;;23.08;;
55710;SDS011;41612;51.994;5.880;2023-12-07T04:56:44;84.00;;;20.60;;
55710;SDS011;41612;51.994;5.880;2023-12-07T04:59:10;79.13;;;18.77;;
55710;SDS011;41612;51.994;5.880;2023-12-07T05:01:36;225.30;;;26.63;;
55710;SDS011;41612;51.994;5.880;2023-12-07T05:04:02;62.47;;;20.02;;
55710;SDS011;41612;51.994;5.880;2023-12-07T05:06:31;245.52;;;26.80;;
55710;SDS011;41612;51.994;5.880;2023-12-07T05:08:57;44.35;;;19.00;;
55710;SDS011;41612;51.994;5.880;2023-12-07T05:11:23;33.95;;;17.73;;
55710;SDS011;41612;51.994;5.880;2023-12-07T05:13:48;143.30;;;22.92;;
55710;SDS011;41612;51.994;5.880;2023-12-07T05:16:14;143.25;;;24.13;;
55710;SDS011;41612;51.994;5.880;2023-12-07T05:18:42;24.95;;;16.17;;
55710;SDS011;41612;51.994;5.880;2023-12-07T05:21:09;111.40;;;19.42;;
55710;SDS011;41612;51.994;5.880;2023-12-07T05:23:35;110.60;;;21.02;;
55710;SDS011;41612;51.994;5.880;2023-12-07T05:26:00;84.65;;;20.65;;
55710;SDS011;41612;51.994;5.880;2023-12-07T05:28:26;40.60;;;20.48;;
55710;SDS011;41612;51.994;5.880;2023-12-07T05:30:53;90.85;;;21.15;;
55710;SDS011;41612;51.994;5.880;2023-12-07T05:33:18;65.03;;;19.65;;
55710;SDS011;41612;51.994;5.880;2023-12-07T05:35:44;47.33;;;19.77;;
55710;SDS011;41612;51.994;5.880;2023-12-07T05:38:10;116.38;;;21.02;;
55710;SDS011;41612;51.994;5.880;2023-12-07T05:40:38;147.70;;;21.77;;
55710;SDS011;41612;51.994;5.880;2023-12-07T05:43:05;63.65;;;18.15;;
55710;SDS011;41612;51.994;5.880;2023-12-07T05:45:30;29.63;;;18.05;;
55710;SDS011;41612;51.994;5.880;2023-12-07T05:47:57;23.80;;;16.83;;
55710;SDS011;41612;51.994;5.880;2023-12-07T05:50:23;178.95;;;23.17;;
55710;SDS011;41612;51.994;5.880;2023-12-07T05:52:48;64.50;;;20.38;;
55710;SDS011;41612;51.994;5.880;2023-12-07T05:55:14;79.15;;;18.77;;
55710;SDS011;41612;51.994;5.880;2023-12-07T05:57:40;222.70;;;22.85;;
55710;SDS011;41612;51.994;5.880;2023-12-07T06:00:06;132.98;;;20.73;;
55710;SDS011;41612;51.994;5.880;2023-12-07T06:02:37;19.05;;;12.68;;
55710;SDS011;41612;51.994;5.880;2023-12-07T06:05:03;25.35;;;17.70;;
55710;SDS011;41612;51.994;5.880;2023-12-07T06:07:31;176.57;;;23.42;;
55710;SDS011;41612;51.994;5.880;2023-12-07T06:09:57;174.43;;;22.17;;
55710;SDS011;41612;51.994;5.880;2023-12-07T06:12:26;130.52;;;22.48;;
55710;SDS011;41612;51.994;5.880;2023-12-07T06:14:53;80.20;;;20.25;;
55710;SDS011;41612;51.994;5.880;2023-12-07T06:17:20;130.10;;;23.50;;
55710;SDS011;41612;51.994;5.880;2023-12-07T06:19:46;118.82;;;21.27;;
55710;SDS011;41612;51.994;5.880;2023-12-07T06:22:12;202.90;;;22.77;;
55710;SDS011;41612;51.994;5.880;2023-12-07T06:24:39;145.00;;;22.05;;
55710;SDS011;41612;51.994;5.880;2023-12-07T06:27:04;100.60;;;21.80;;
55710;SDS011;41612;51.994;5.880;2023-12-07T06:29:30;143.13;;;22.15;;
55710;SDS011;41612;51.994;5.880;2023-12-07T06:31:56;43.75;;;20.27;;
55710;SDS011;41612;51.994;5.880;2023-12-07T06:34:22;71.07;;;20.92;;
55710;SDS011;41612;51.994;5.880;2023-12-07T06:36:47;112.72;;;23.98;;
55710;SDS011;41612;51.994;5.880;2023-12-07T06:39:13;43.47;;;20.58;;
55710;SDS011;41612;51.994;5.880;2023-12-07T06:41:42;117.45;;;23.75;;
55710;SDS011;41612;51.994;5.880;2023-12-07T06:44:08;41.53;;;20.17;;
55710;SDS011;41612;51.994;5.880;2023-12-07T06:46:33;72.53;;;21.33;;
55710;SDS011;41612;51.994;5.880;2023-12-07T06:48:59;57.25;;;20.95;;
55710;SDS011;41612;51.994;5.880;2023-12-07T06:51:25;37.25;;;20.83;;
55710;SDS011;41612;51.994;5.880;2023-12-07T06:53:51;41.97;;;21.08;;
55710;SDS011;41612;51.994;5.880;2023-12-07T06:56:17;125.70;;;23.80;;
55710;SDS011;41612;51.994;5.880;2023-12-07T06:58:42;124.65;;;21.27;;
55710;SDS011;41612;51.994;5.880;2023-12-07T07:01:08;99.97;;;20.55;;
55710;SDS011;41612;51.994;5.880;2023-12-07T07:03:33;130.20;;;22.60;;
55710;SDS011;41612;51.994;5.880;2023-12-07T07:06:00;174.65;;;24.05;;
55710;SDS011;41612;51.994;5.880;2023-12-07T07:08:28;26.17;;;18.85;;
55710;SDS011;41612;51.994;5.880;2023-12-07T07:10:55;144.85;;;22.35;;
55710;SDS011;41612;51.994;5.880;2023-12-07T07:13:21;106.80;;;23.92;;
55710;SDS011;41612;51.994;5.880;2023-12-07T07:15:46;59.22;;;20.98;;
55710;SDS011;41612;51.994;5.880;2023-12-07T07:18:15;74.15;;;21.13;;
55710;SDS011;41612;51.994;5.880;2023-12-07T07:20:40;87.93;;;21.42;;
55710;SDS011;41612;51.994;5.880;2023-12-07T07:23:06;172.68;;;23.75;;
55710;SDS011;41612;51.994;5.880;2023-12-07T07:25:33;31.00;;;18.23;;
55710;SDS011;41612;51.994;5.880;2023-12-07T07:27:59;180.38;;;24.55;;
55710;SDS011;41612;51.994;5.880;2023-12-07T07:30:25;177.85;;;25.92;;
55710;SDS011;41612;51.994;5.880;2023-12-07T07:32:51;204.73;;;24.90;;
55710;SDS011;41612;51.994;5.880;2023-12-07T07:35:17;123.40;;;23.83;;
55710;SDS011;41612;51.994;5.880;2023-12-07T07:37:43;67.82;;;22.27;;
55710;SDS011;41612;51.994;5.880;2023-12-07T07:40:09;94.65;;;21.45;;
55710;SDS011;41612;51.994;5.880;2023-12-07T07:42:39;56.30;;;20.92;;
55710;SDS011;41612;51.994;5.880;2023-12-07T07:45:06;60.88;;;21.85;;
55710;SDS011;41612;51.994;5.880;2023-12-07T07:47:33;46.28;;;20.17;;
55710;SDS011;41612;51.994;5.880;2023-12-07T07:49:58;44.28;;;20.35;;
55710;SDS011;41612;51.994;5.880;2023-12-07T07:52:24;41.28;;;20.52;;
55710;SDS011;41612;51.994;5.880;2023-12-07T07:54:50;102.60;;;23.10;;
55710;SDS011;41612;51.994;5.880;2023-12-07T07:57:15;39.83;;;21.20;;
55710;SDS011;41612;51.994;5.880;2023-12-07T07:59:44;82.13;;;20.52;;
55710;SDS011;41612;51.994;5.880;2023-12-07T08:02:09;134.85;;;24.15;;
55710;SDS011;41612;51.994;5.880;2023-12-07T08:04:35;46.38;;;21.08;;
55710;SDS011;41612;51.994;5.880;2023-12-07T08:07:01;58.95;;;21.00;;
55710;SDS011;41612;51.994;5.880;2023-12-07T08:09:26;69.63;;;21.85;;
55710;SDS011;41612;51.994;5.880;2023-12-07T08:11:52;90.35;;;22.55;;
55710;SDS011;41612;51.994;5.880;2023-12-07T08:14:17;82.05;;;22.75;;
55710;SDS011;41612;51.994;5.880;2023-12-07T08:16:44;74.18;;;21.45;;
55710;SDS011;41612;51.994;5.880;2023-12-07T08:19:11;73.43;;;21.67;;
55710;SDS011;41612;51.994;5.880;2023-12-07T08:21:38;56.25;;;20.40;;
55710;SDS011;41612;51.994;5.880;2023-12-07T08:24:04;39.80;;;20.77;;
55710;SDS011;41612;51.994;5.880;2023-12-07T08:26:31;65.15;;;22.25;;
55710;SDS011;41612;51.994;5.880;2023-12-07T08:28:57;58.25;;;21.85;;
55710;SDS011;41612;51.994;5.880;2023-12-07T08:31:22;55.92;;;21.95;;
55710;SDS011;41612;51.994;5.880;2023-12-07T08:33:50;65.00;;;23.05;;
55710;SDS011;41612;51.994;5.880;2023-12-07T08:36:16;77.13;;;23.67;;
55710;SDS011;41612;51.994;5.880;2023-12-07T08:38:42;53.22;;;22.45;;
55710;SDS011;41612;51.994;5.880;2023-12-07T08:41:07;41.78;;;22.52;;
55710;SDS011;41612;51.994;5.880;2023-12-07T08:43:34;112.13;;;23.13;;
55710;SDS011;41612;51.994;5.880;2023-12-07T08:46:00;33.92;;;22.83;;
55710;SDS011;41612;51.994;5.880;2023-12-07T08:48:26;100.10;;;24.52;;
55710;SDS011;41612;51.994;5.880;2023-12-07T08:50:51;140.38;;;24.05;;
55710;SDS011;41612;51.994;5.880;2023-12-07T08:53:17;62.00;;;20.35;;
55710;SDS011;41612;51.994;5.880;2023-12-07T08:55:44;103.22;;;22.90;;
55710;SDS011;41612;51.994;5.880;2023-12-07T08:58:09;72.05;;;20.88;;
55710;SDS011;41612;51.994;5.880;2023-12-07T09:00:35;95.95;;;22.27;;
55710;SDS011;41612;51.994;5.880;2023-12-07T09:03:02;41.15;;;19.48;;
55710;SDS011;41612;51.994;5.880;2023-12-07T09:05:28;117.47;;;23.27;;
55710;SDS011;41612;51.994;5.880;2023-12-07T09:07:55;52.30;;;22.23;;
55710;SDS011;41612;51.994;5.880;2023-12-07T09:10:22;73.07;;;21.73;;
55710;SDS011;41612;51.994;5.880;2023-12-07T09:12:48;127.95;;;24.10;;
55710;SDS011;41612;51.994;5.880;2023-12-07T09:15:14;131.40;;;25.05;;
55710;SDS011;41612;51.994;5.880;2023-12-07T09:17:39;121.32;;;24.55;;
55710;SDS011;41612;51.994;5.880;2023-12-07T09:20:09;88.90;;;22.38;;
55710;SDS011;41612;51.994;5.880;2023-12-07T09:22:42;144.32;;;23.90;;
55710;SDS011;41612;51.994;5.880;2023-12-07T09:25:11;175.93;;;29.90;;
55710;SDS011;41612;51.994;5.880;2023-12-07T09:27:38;108.90;;;20.42;;
55710;SDS011;41612;51.994;5.880;2023-12-07T09:30:05;144.10;;;22.45;;
55710;SDS011;41612;51.994;5.880;2023-12-07T09:32:31;176.70;;;24.00;;
55710;SDS011;41612;51.994;5.880;2023-12-07T09:34:57;89.25;;;19.58;;
55710;SDS011;41612;51.994;5.880;2023-12-07T09:37:23;170.45;;;22.17;;
55710;SDS011;41612;51.994;5.880;2023-12-07T09:39:48;100.07;;;19.90;;
55710;SDS011;41612;51.994;5.880;2023-12-07T09:42:14;78.45;;;18.58;;
55710;SDS011;41612;51.994;5.880;2023-12-07T09:44:40;120.78;;;21.48;;
55710;SDS011;41612;51.994;5.880;2023-12-07T09:47:05;112.55;;;19.95;;
55710;SDS011;41612;51.994;5.880;2023-12-07T09:49:31;115.70;;;20.70;;
55710;SDS011;41612;51.994;5.880;2023-12-07T09:51:58;150.43;;;19.98;;
55710;SDS011;41612;51.994;5.880;2023-12-07T09:54:24;123.97;;;17.95;;
55710;SDS011;41612;51.994;5.880;2023-12-07T09:56:52;96.07;;;16.60;;
55710;SDS011;41612;51.994;5.880;2023-12-07T09:59:19;64.72;;;14.80;;
55710;SDS011;41612;51.994;5.880;2023-12-07T10:01:45;114.43;;;15.50;;
55710;SDS011;41612;51.994;5.880;2023-12-07T10:04:14;83.18;;;14.48;;
55710;SDS011;41612;51.994;5.880;2023-12-07T10:06:49;92.88;;;15.75;;
55710;SDS011;41612;51.994;5.880;2023-12-07T10:09:15;102.88;;;16.73;;
55710;SDS011;41612;51.994;5.880;2023-12-07T10:11:44;58.78;;;13.48;;
55710;SDS011;41612;51.994;5.880;2023-12-07T10:14:10;82.43;;;14.25;;
55710;SDS011;41612;51.994;5.880;2023-12-07T10:16:36;80.45;;;16.10;;
55710;SDS011;41612;51.994;5.880;2023-12-07T10:19:14;125.03;;;16.00;;
55710;SDS011;41612;51.994;5.880;2023-12-07T10:21:44;29.30;;;14.13;;
55710;SDS011;41612;51.994;5.880;2023-12-07T10:24:10;48.58;;;13.90;;
55710;SDS011;41612;51.994;5.880;2023-12-07T10:26:37;140.02;;;16.42;;
55710;SDS011;41612;51.994;5.880;2023-12-07T10:29:07;49.63;;;12.23;;
55710;SDS011;41612;51.994;5.880;2023-12-07T10:31:33;52.05;;;14.07;;
55710;SDS011;41612;51.994;5.880;2023-12-07T10:33:59;43.17;;;14.73;;
55710;SDS011;41612;51.994;5.880;2023-12-07T10:36:25;123.10;;;16.70;;
55710;SDS011;41612;51.994;5.880;2023-12-07T10:38:52;66.53;;;16.17;;
55710;SDS011;41612;51.994;5.880;2023-12-07T10:41:18;54.95;;;15.10;;
55710;SDS011;41612;51.994;5.880;2023-12-07T10:43:48;45.58;;;15.90;;
55710;SDS011;41612;51.994;5.880;2023-12-07T10:46:16;66.68;;;15.32;;
55710;SDS011;41612;51.994;5.880;2023-12-07T10:48:45;78.10;;;17.13;;
55710;SDS011;41612;51.994;5.880;2023-12-07T10:51:13;86.05;;;17.52;;
55710;SDS011;41612;51.994;5.880;2023-12-07T10:53:59;95.57;;;20.15;;
55710;SDS011;41612;51.994;5.880;2023-12-07T10:56:29;44.72;;;16.50;;
55710;SDS011;41612;51.994;5.880;2023-12-07T10:59:05;77.07;;;16.30;;
55710;SDS011;41612;51.994;5.880;2023-12-07T11:01:33;101.15;;;18.67;;
55710;SDS011;41612;51.994;5.880;2023-12-07T11:04:00;136.57;;;21.23;;
55710;SDS011;41612;51.994;5.880;2023-12-07T11:06:26;54.88;;;16.92;;
55710;SDS011;41612;51.994;5.880;2023-12-07T11:08:57;38.63;;;15.63;;
55710;SDS011;41612;51.994;5.880;2023-12-07T11:14:05;96.07;;;16.73;;
55710;SDS011;41612;51.994;5.880;2023-12-07T11:16:32;85.65;;;18.33;;
55710;SDS011;41612;51.994;5.880;2023-12-07T11:19:03;77.25;;;18.98;;
55710;SDS011;41612;51.994;5.880;2023-12-07T11:24:32;63.80;;;18.23;;
55710;SDS011;41612;51.994;5.880;2023-12-07T11:30:46;69.88;;;17.67;;
55710;SDS011;41612;51.994;5.880;2023-12-07T11:33:15;55.95;;;18.48;;
55710;SDS011;41612;51.994;5.880;2023-12-07T11:38:25;108.95;;;23.48;;
55710;SDS011;41612;51.994;5.880;2023-12-07T11:40:54;69.32;;;21.52;;
55710;SDS011;41612;51.994;5.880;2023-12-07T11:46:03;71.15;;;24.90;;
55710;SDS011;41612;51.994;5.880;2023-12-07T11:48:29;66.55;;;20.08;;
55710;SDS011;41612;51.994;5.880;2023-12-07T11:51:02;67.78;;;22.50;;
55710;SDS011;41612;51.994;5.880;2023-12-07T11:53:29;61.75;;;24.35;;
55710;SDS011;41612;51.994;5.880;2023-12-07T11:56:02;66.43;;;24.42;;
55710;SDS011;41612;51.994;5.880;2023-12-07T11:58:30;53.47;;;22.58;;
55710;SDS011;41612;51.994;5.880;2023-12-07T12:00:58;56.03;;;23.55;;
55710;SDS011;41612;51.994;5.880;2023-12-07T12:03:26;64.03;;;23.40;;
55710;SDS011;41612;51.994;5.880;2023-12-07T12:05:53;46.55;;;20.15;;
55710;SDS011;41612;51.994;5.880;2023-12-07T12:08:19;68.07;;;26.58;;
55710;SDS011;41612;51.994;5.880;2023-12-07T12:10:51;69.88;;;26.15;;
55710;SDS011;41612;51.994;5.880;2023-12-07T12:13:25;65.90;;;27.33;;
55710;SDS011;41612;51.994;5.880;2023-12-07T12:15:58;65.28;;;25.83;;
55710;SDS011;41612;51.994;5.880;2023-12-07T12:18:27;63.88;;;24.83;;
55710;SDS011;41612;51.994;5.880;2023-12-07T12:20:57;65.65;;;24.50;;
55710;SDS011;41612;51.994;5.880;2023-12-07T12:23:24;63.92;;;25.90;;
55710;SDS011;41612;51.994;5.880;2023-12-07T12:25:50;62.03;;;25.75;;
55710;SDS011;41612;51.994;5.880;2023-12-07T12:28:19;64.70;;;25.98;;
55710;SDS011;41612;51.994;5.880;2023-12-07T12:30:50;64.60;;;26.67;;
55710;SDS011;41612;51.994;5.880;2023-12-07T12:33:19;66.22;;;26.42;;
55710;SDS011;41612;51.994;5.880;2023-12-07T12:35:45;63.20;;;26.63;;
55710;SDS011;41612;51.994;5.880;2023-12-07T12:38:11;66.15;;;29.02;;
55710;SDS011;41612;51.994;5.880;2023-12-07T12:40:37;65.07;;;28.05;;
55710;SDS011;41612;51.994;5.880;2023-12-07T12:43:03;60.97;;;28.17;;
55710;SDS011;41612;51.994;5.880;2023-12-07T12:45:30;63.03;;;26.48;;
55710;SDS011;41612;51.994;5.880;2023-12-07T12:47:57;56.60;;;25.40;;
55710;SDS011;41612;51.994;5.880;2023-12-07T12:50:38;63.63;;;27.30;;
55710;SDS011;41612;51.994;5.880;2023-12-07T12:53:09;61.53;;;25.77;;
55710;SDS011;41612;51.994;5.880;2023-12-07T12:55:36;63.05;;;27.63;;
55710;SDS011;41612;51.994;5.880;2023-12-07T12:58:08;73.20;;;27.90;;
55710;SDS011;41612;51.994;5.880;2023-12-07T13:00:38;65.75;;;29.25;;
55710;SDS011;41612;51.994;5.880;2023-12-07T13:03:05;72.00;;;30.90;;
55710;SDS011;41612;51.994;5.880;2023-12-07T13:05:32;67.82;;;27.70;;
55710;SDS011;41612;51.994;5.880;2023-12-07T13:07:59;69.57;;;28.10;;
55710;SDS011;41612;51.994;5.880;2023-12-07T13:10:25;56.33;;;25.65;;
55710;SDS011;41612;51.994;5.880;2023-12-07T13:12:51;66.90;;;26.17;;
55710;SDS011;41612;51.994;5.880;2023-12-07T13:15:17;65.72;;;27.85;;
55710;SDS011;41612;51.994;5.880;2023-12-07T13:17:43;70.07;;;29.52;;
55710;SDS011;41612;51.994;5.880;2023-12-07T13:20:09;65.90;;;27.35;;
55710;SDS011;41612;51.994;5.880;2023-12-07T13:22:39;69.72;;;30.10;;
55710;SDS011;41612;51.994;5.880;2023-12-07T13:25:08;59.13;;;27.65;;
55710;SDS011;41612;51.994;5.880;2023-12-07T13:27:35;73.80;;;33.00;;
55710;SDS011;41612;51.994;5.880;2023-12-07T13:30:02;66.60;;;29.50;;
55710;SDS011;41612;51.994;5.880;2023-12-07T13:32:35;78.47;;;32.65;;
55710;SDS011;41612;51.994;5.880;2023-12-07T13:35:06;66.03;;;28.50;;
55710;SDS011;41612;51.994;5.880;2023-12-07T13:37:50;68.45;;;26.67;;
55710;SDS011;41612;51.994;5.880;2023-12-07T13:40:15;66.90;;;28.98;;
55710;SDS011;41612;51.994;5.880;2023-12-07T13:42:44;71.78;;;29.80;;
55710;SDS011;41612;51.994;5.880;2023-12-07T13:45:10;70.03;;;27.88;;
55710;SDS011;41612;51.994;5.880;2023-12-07T13:47:38;75.70;;;30.10;;
55710;SDS011;41612;51.994;5.880;2023-12-07T13:50:04;78.72;;;30.95;;
55710;SDS011;41612;51.994;5.880;2023-12-07T13:52:31;72.45;;;29.15;;
55710;SDS011;41612;51.994;5.880;2023-12-07T13:54:57;73.93;;;30.08;;
55710;SDS011;41612;51.994;5.880;2023-12-07T13:57:23;69.72;;;31.05;;
55710;SDS011;41612;51.994;5.880;2023-12-07T13:59:50;69.55;;;29.75;;
55710;SDS011;41612;51.994;5.880;2023-12-07T14:02:16;59.25;;;27.23;;
55710;SDS011;41612;51.994;5.880;2023-12-07T14:04:46;64.15;;;27.45;;
55710;SDS011;41612;51.994;5.880;2023-12-07T14:07:15;64.72;;;28.35;;
55710;SDS011;41612;51.994;5.880;2023-12-07T14:09:42;62.47;;;27.73;;
55710;SDS011;41612;51.994;5.880;2023-12-07T14:12:14;64.53;;;28.80;;
55710;SDS011;41612;51.994;5.880;2023-12-07T14:14:48;61.20;;;29.67;;
55710;SDS011;41612;51.994;5.880;2023-12-07T14:17:15;59.15;;;25.05;;
55710;SDS011;41612;51.994;5.880;2023-12-07T14:19:41;64.00;;;32.00;;
55710;SDS011;41612;51.994;5.880;2023-12-07T14:22:15;64.45;;;32.38;;
55710;SDS011;41612;51.994;5.880;2023-12-07T14:24:40;55.83;;;28.55;;
55710;SDS011;41612;51.994;5.880;2023-12-07T14:27:06;68.25;;;32.53;;
55710;SDS011;41612;51.994;5.880;2023-12-07T14:29:33;64.90;;;30.45;;
55710;SDS011;41612;51.994;5.880;2023-12-07T14:31:59;61.78;;;28.80;;
55710;SDS011;41612;51.994;5.880;2023-12-07T14:34:25;54.53;;;27.38;;